sensor_id;sensor_type;location;lat;lon;timestamp;P1;durP1;ratioP1;P2;durP2;ratioP2
44358;SDS011;30077;52.474;13.326;2022-09-03T00:00:57;3.03;;;2.20;;
44358;SDS011;30077;52.474;13.326;2022-09-03T00:06:05;7.25;;;2.25;;
44358;SDS011;30077;52.474;13.326;2022-09-03T00:11:19;3.70;;;2.00;;
44358;SDS011;30077;52.474;13.326;2022-09-03T00:16:23;3.90;;;2.00;;
44358;SDS011;30077;52.474;13.326;2022-09-03T00:21:39;6.15;;;2.17;;
44358;SDS011;30077;52.474;13.326;2022-09-03T00:26:46;3.63;;;1.85;;
44358;SDS011;30077;52.474;13.326;2022-09-03T00:31:55;6.55;;;2.15;;
44358;SDS011;30077;52.474;13.326;2022-09-03T00:36:58;2.35;;;1.58;;
44358;SDS011;30077;52.474;13.326;2022-09-03T01:03:50;4.28;;;2.03;;
44358;SDS011;30077;52.474;13.326;2022-09-03T01:19:49;5.00;;;1.85;;
44358;SDS011;30077;52.474;13.326;2022-09-03T01:25:16;1.90;;;1.60;;
44358;SDS011;30077;52.474;13.326;2022-09-03T01:30:56;4.18;;;1.95;;
44358;SDS011;30077;52.474;13.326;2022-09-03T01:41:43;6.90;;;2.10;;
44358;SDS011;30077;52.474;13.326;2022-09-03T01:47:17;4.32;;;2.00;;
44358;SDS011;30077;52.474;13.326;2022-09-03T01:57:46;2.67;;;1.58;;
44358;SDS011;30077;52.474;13.326;2022-09-03T02:02:50;4.45;;;1.65;;
44358;SDS011;30077;52.474;13.326;2022-09-03T02:08:02;3.30;;;1.80;;
44358;SDS011;30077;52.474;13.326;2022-09-03T02:13:06;3.60;;;1.40;;
44358;SDS011;30077;52.474;13.326;2022-09-03T02:18:12;5.18;;;1.73;;
44358;SDS011;30077;52.474;13.326;2022-09-03T02:23:16;4.82;;;1.80;;
44358;SDS011;30077;52.474;13.326;2022-09-03T02:28:16;4.03;;;1.80;;
44358;SDS011;30077;52.474;13.326;2022-09-03T02:33:17;2.35;;;1.60;;
44358;SDS011;30077;52.474;13.326;2022-09-03T02:38:19;3.85;;;2.30;;
44358;SDS011;30077;52.474;13.326;2022-09-03T02:43:36;3.30;;;1.77;;
44358;SDS011;30077;52.474;13.326;2022-09-03T02:48:40;5.88;;;2.22;;
44358;SDS011;30077;52.474;13.326;2022-09-03T02:53:41;4.28;;;1.70;;
44358;SDS011;30077;52.474;13.326;2022-09-03T02:58:41;3.60;;;1.90;;
44358;SDS011;30077;52.474;13.326;2022-09-03T03:03:42;6.32;;;1.77;;
44358;SDS011;30077;52.474;13.326;2022-09-03T03:08:42;7.82;;;1.90;;
44358;SDS011;30077;52.474;13.326;2022-09-03T03:13:43;5.18;;;2.20;;
44358;SDS011;30077;52.474;13.326;2022-09-03T03:18:45;3.40;;;1.90;;
44358;SDS011;30077;52.474;13.326;2022-09-03T03:23:45;4.07;;;1.70;;
44358;SDS011;30077;52.474;13.326;2022-09-03T03:28:46;5.85;;;2.30;;
44358;SDS011;30077;52.474;13.326;2022-09-03T03:33:51;2.30;;;1.87;;
44358;SDS011;30077;52.474;13.326;2022-09-03T03:38:53;5.32;;;2.25;;
44358;SDS011;30077;52.474;13.326;2022-09-03T03:43:55;3.67;;;2.33;;
44358;SDS011;30077;52.474;13.326;2022-09-03T03:53:58;3.63;;;2.00;;
44358;SDS011;30077;52.474;13.326;2022-09-03T03:58:59;3.23;;;2.20;;
44358;SDS011;30077;52.474;13.326;2022-09-03T04:03:59;2.70;;;2.13;;
44358;SDS011;30077;52.474;13.326;2022-09-03T04:08:59;6.68;;;2.25;;
44358;SDS011;30077;52.474;13.326;2022-09-03T04:14:01;4.32;;;2.20;;
44358;SDS011;30077;52.474;13.326;2022-09-03T04:19:01;4.40;;;2.28;;
44358;SDS011;30077;52.474;13.326;2022-09-03T04:24:02;3.83;;;2.50;;
44358;SDS011;30077;52.474;13.326;2022-09-03T04:29:05;6.30;;;2.80;;
44358;SDS011;30077;52.474;13.326;2022-09-03T04:39:06;5.32;;;3.00;;
44358;SDS011;30077;52.474;13.326;2022-09-03T04:44:07;4.97;;;2.30;;
44358;SDS011;30077;52.474;13.326;2022-09-03T04:49:07;3.70;;;2.53;;
44358;SDS011;30077;52.474;13.326;2022-09-03T04:54:09;3.58;;;2.28;;
44358;SDS011;30077;52.474;13.326;2022-09-03T04:59:09;5.60;;;2.70;;
44358;SDS011;30077;52.474;13.326;2022-09-03T05:04:10;4.63;;;2.55;;
44358;SDS011;30077;52.474;13.326;2022-09-03T05:09:10;5.50;;;2.73;;
44358;SDS011;30077;52.474;13.326;2022-09-03T05:14:10;5.57;;;2.85;;
44358;SDS011;30077;52.474;13.326;2022-09-03T05:19:11;5.60;;;3.35;;
44358;SDS011;30077;52.474;13.326;2022-09-03T05:24:11;6.07;;;2.60;;
44358;SDS011;30077;52.474;13.326;2022-09-03T05:29:13;7.87;;;2.80;;
44358;SDS011;30077;52.474;13.326;2022-09-03T05:34:14;5.32;;;2.72;;
44358;SDS011;30077;52.474;13.326;2022-09-03T05:39:15;4.45;;;3.05;;
44358;SDS011;30077;52.474;13.326;2022-09-03T05:44:15;5.80;;;2.72;;
44358;SDS011;30077;52.474;13.326;2022-09-03T05:49:15;8.52;;;2.80;;
44358;SDS011;30077;52.474;13.326;2022-09-03T05:54:16;5.88;;;2.58;;
44358;SDS011;30077;52.474;13.326;2022-09-03T05:59:16;6.10;;;2.88;;
44358;SDS011;30077;52.474;13.326;2022-09-03T06:04:16;3.43;;;2.93;;
44358;SDS011;30077;52.474;13.326;2022-09-03T06:09:18;4.87;;;2.83;;
44358;SDS011;30077;52.474;13.326;2022-09-03T06:19:20;4.47;;;2.97;;
44358;SDS011;30077;52.474;13.326;2022-09-03T06:24:21;7.17;;;2.77;;
44358;SDS011;30077;52.474;13.326;2022-09-03T06:29:26;8.95;;;3.00;;
44358;SDS011;30077;52.474;13.326;2022-09-03T06:34:27;4.28;;;2.83;;
44358;SDS011;30077;52.474;13.326;2022-09-03T06:39:27;5.68;;;3.33;;
44358;SDS011;30077;52.474;13.326;2022-09-03T06:44:28;7.70;;;2.93;;
44358;SDS011;30077;52.474;13.326;2022-09-03T06:49:28;7.63;;;3.15;;
44358;SDS011;30077;52.474;13.326;2022-09-03T06:54:30;3.70;;;2.47;;
44358;SDS011;30077;52.474;13.326;2022-09-03T06:59:31;6.10;;;2.70;;
44358;SDS011;30077;52.474;13.326;2022-09-03T07:04:31;5.05;;;2.92;;
44358;SDS011;30077;52.474;13.326;2022-09-03T07:09:33;5.88;;;3.30;;
44358;SDS011;30077;52.474;13.326;2022-09-03T07:14:37;7.65;;;2.70;;
44358;SDS011;30077;52.474;13.326;2022-09-03T07:19:37;4.10;;;2.38;;
44358;SDS011;30077;52.474;13.326;2022-09-03T07:24:37;4.32;;;2.80;;
44358;SDS011;30077;52.474;13.326;2022-09-03T07:29:38;4.00;;;2.78;;
44358;SDS011;30077;52.474;13.326;2022-09-03T07:34:38;6.43;;;2.50;;
44358;SDS011;30077;52.474;13.326;2022-09-03T07:39:38;3.67;;;2.35;;
44358;SDS011;30077;52.474;13.326;2022-09-03T07:44:40;10.23;;;2.72;;
44358;SDS011;30077;52.474;13.326;2022-09-03T07:49:40;8.10;;;2.70;;
44358;SDS011;30077;52.474;13.326;2022-09-03T07:54:40;5.97;;;2.80;;
44358;SDS011;30077;52.474;13.326;2022-09-03T07:59:41;3.72;;;2.38;;
44358;SDS011;30077;52.474;13.326;2022-09-03T08:04:41;4.40;;;2.55;;
44358;SDS011;30077;52.474;13.326;2022-09-03T08:09:42;9.45;;;2.42;;
44358;SDS011;30077;52.474;13.326;2022-09-03T08:14:42;5.77;;;2.47;;
44358;SDS011;30077;52.474;13.326;2022-09-03T08:19:43;6.32;;;2.33;;
44358;SDS011;30077;52.474;13.326;2022-09-03T08:24:45;11.52;;;2.60;;
44358;SDS011;30077;52.474;13.326;2022-09-03T08:29:45;4.88;;;2.30;;
44358;SDS011;30077;52.474;13.326;2022-09-03T08:34:47;7.20;;;2.42;;
44358;SDS011;30077;52.474;13.326;2022-09-03T08:39:47;4.57;;;2.10;;
44358;SDS011;30077;52.474;13.326;2022-09-03T08:44:56;4.68;;;2.40;;
44358;SDS011;30077;52.474;13.326;2022-09-03T08:50:10;8.48;;;2.25;;
44358;SDS011;30077;52.474;13.326;2022-09-03T09:01:03;4.18;;;2.20;;
44358;SDS011;30077;52.474;13.326;2022-09-03T09:06:06;6.53;;;2.40;;
44358;SDS011;30077;52.474;13.326;2022-09-03T09:11:16;5.82;;;2.72;;
44358;SDS011;30077;52.474;13.326;2022-09-03T09:16:49;3.72;;;2.20;;
44358;SDS011;30077;52.474;13.326;2022-09-03T09:22:00;2.80;;;2.03;;
44358;SDS011;30077;52.474;13.326;2022-09-03T09:27:06;5.90;;;2.30;;
44358;SDS011;30077;52.474;13.326;2022-09-03T09:32:08;5.70;;;2.10;;
44358;SDS011;30077;52.474;13.326;2022-09-03T09:37:11;7.60;;;2.45;;
44358;SDS011;30077;52.474;13.326;2022-09-03T09:42:14;5.00;;;2.30;;
44358;SDS011;30077;52.474;13.326;2022-09-03T09:47:24;3.72;;;2.10;;
44358;SDS011;30077;52.474;13.326;2022-09-03T09:52:28;4.53;;;2.10;;
44358;SDS011;30077;52.474;13.326;2022-09-03T09:57:30;3.22;;;1.63;;
44358;SDS011;30077;52.474;13.326;2022-09-03T10:02:32;5.65;;;2.00;;
44358;SDS011;30077;52.474;13.326;2022-09-03T10:07:34;4.45;;;2.13;;
44358;SDS011;30077;52.474;13.326;2022-09-03T10:12:38;3.13;;;1.90;;
44358;SDS011;30077;52.474;13.326;2022-09-03T10:23:06;2.83;;;1.38;;
44358;SDS011;30077;52.474;13.326;2022-09-03T10:28:14;3.67;;;1.40;;
44358;SDS011;30077;52.474;13.326;2022-09-03T10:33:17;5.38;;;1.88;;
44358;SDS011;30077;52.474;13.326;2022-09-03T10:38:30;6.38;;;1.50;;
44358;SDS011;30077;52.474;13.326;2022-09-03T10:43:39;2.35;;;1.73;;
44358;SDS011;30077;52.474;13.326;2022-09-03T10:54:08;2.78;;;1.70;;
44358;SDS011;30077;52.474;13.326;2022-09-03T10:59:43;7.15;;;1.80;;
44358;SDS011;30077;52.474;13.326;2022-09-03T11:05:04;4.28;;;2.00;;
44358;SDS011;30077;52.474;13.326;2022-09-03T11:20:36;3.20;;;1.42;;
44358;SDS011;30077;52.474;13.326;2022-09-03T11:25:41;4.00;;;1.77;;
44358;SDS011;30077;52.474;13.326;2022-09-03T11:36:22;8.27;;;1.60;;
44358;SDS011;30077;52.474;13.326;2022-09-03T11:41:35;2.08;;;1.83;;
44358;SDS011;30077;52.474;13.326;2022-09-03T11:46:38;3.60;;;1.73;;
44358;SDS011;30077;52.474;13.326;2022-09-03T11:51:40;9.60;;;6.97;;
44358;SDS011;30077;52.474;13.326;2022-09-03T11:56:45;2.53;;;1.40;;
44358;SDS011;30077;52.474;13.326;2022-09-03T12:01:59;4.00;;;1.80;;
44358;SDS011;30077;52.474;13.326;2022-09-03T12:07:05;2.15;;;1.42;;
44358;SDS011;30077;52.474;13.326;2022-09-03T12:12:29;2.90;;;1.67;;
44358;SDS011;30077;52.474;13.326;2022-09-03T12:23:13;1.75;;;1.50;;
44358;SDS011;30077;52.474;13.326;2022-09-03T12:28:25;3.75;;;2.13;;
44358;SDS011;30077;52.474;13.326;2022-09-03T12:33:28;4.65;;;3.00;;
44358;SDS011;30077;52.474;13.326;2022-09-03T12:38:28;6.88;;;3.72;;
44358;SDS011;30077;52.474;13.326;2022-09-03T12:43:31;5.40;;;1.77;;
44358;SDS011;30077;52.474;13.326;2022-09-03T12:48:31;3.03;;;1.50;;
44358;SDS011;30077;52.474;13.326;2022-09-03T12:53:31;2.42;;;1.63;;
44358;SDS011;30077;52.474;13.326;2022-09-03T12:58:34;5.07;;;1.73;;
44358;SDS011;30077;52.474;13.326;2022-09-03T13:03:51;8.85;;;2.55;;
44358;SDS011;30077;52.474;13.326;2022-09-03T13:08:58;3.53;;;1.80;;
44358;SDS011;30077;52.474;13.326;2022-09-03T13:40:43;5.03;;;1.73;;
44358;SDS011;30077;52.474;13.326;2022-09-03T13:45:55;3.03;;;1.83;;
44358;SDS011;30077;52.474;13.326;2022-09-03T13:56:15;3.35;;;1.80;;
44358;SDS011;30077;52.474;13.326;2022-09-03T14:01:26;5.18;;;1.80;;
44358;SDS011;30077;52.474;13.326;2022-09-03T14:07:00;5.80;;;2.22;;
44358;SDS011;30077;52.474;13.326;2022-09-03T14:23:03;5.90;;;2.05;;
44358;SDS011;30077;52.474;13.326;2022-09-03T14:28:25;4.70;;;2.03;;
44358;SDS011;30077;52.474;13.326;2022-09-03T14:39:27;6.00;;;2.25;;
44358;SDS011;30077;52.474;13.326;2022-09-03T14:44:38;1.70;;;1.55;;
44358;SDS011;30077;52.474;13.326;2022-09-03T14:50:00;4.80;;;2.47;;
44358;SDS011;30077;52.474;13.326;2022-09-03T15:11:23;3.78;;;1.90;;
44358;SDS011;30077;52.474;13.326;2022-09-03T15:16:35;4.63;;;2.47;;
44358;SDS011;30077;52.474;13.326;2022-09-03T15:21:49;7.03;;;2.13;;
44358;SDS011;30077;52.474;13.326;2022-09-03T15:27:22;2.78;;;2.00;;
44358;SDS011;30077;52.474;13.326;2022-09-03T15:32:48;7.80;;;2.20;;
44358;SDS011;30077;52.474;13.326;2022-09-03T15:37:54;5.72;;;2.75;;
44358;SDS011;30077;52.474;13.326;2022-09-03T15:43:09;6.15;;;2.33;;
44358;SDS011;30077;52.474;13.326;2022-09-03T15:53:47;5.28;;;2.30;;
44358;SDS011;30077;52.474;13.326;2022-09-03T15:59:00;5.43;;;2.47;;
44358;SDS011;30077;52.474;13.326;2022-09-03T16:14:40;11.43;;;2.97;;
44358;SDS011;30077;52.474;13.326;2022-09-03T16:19:52;3.95;;;2.63;;
44358;SDS011;30077;52.474;13.326;2022-09-03T16:25:00;6.32;;;2.80;;
44358;SDS011;30077;52.474;13.326;2022-09-03T16:35:16;8.52;;;4.45;;
44358;SDS011;30077;52.474;13.326;2022-09-03T16:50:30;3.88;;;2.83;;
44358;SDS011;30077;52.474;13.326;2022-09-03T16:56:00;5.32;;;2.80;;
44358;SDS011;30077;52.474;13.326;2022-09-03T17:01:43;4.80;;;2.95;;
44358;SDS011;30077;52.474;13.326;2022-09-03T17:13:06;9.10;;;3.70;;
44358;SDS011;30077;52.474;13.326;2022-09-03T17:18:24;6.28;;;4.07;;
44358;SDS011;30077;52.474;13.326;2022-09-03T17:34:04;9.88;;;3.85;;
44358;SDS011;30077;52.474;13.326;2022-09-03T17:39:20;7.05;;;3.97;;
44358;SDS011;30077;52.474;13.326;2022-09-03T17:55:39;7.83;;;4.67;;
44358;SDS011;30077;52.474;13.326;2022-09-03T18:06:21;9.82;;;4.88;;
44358;SDS011;30077;52.474;13.326;2022-09-03T18:11:38;8.57;;;4.43;;
44358;SDS011;30077;52.474;13.326;2022-09-03T18:16:47;7.10;;;4.80;;
44358;SDS011;30077;52.474;13.326;2022-09-03T18:21:48;9.27;;;5.22;;
44358;SDS011;30077;52.474;13.326;2022-09-03T18:27:11;11.32;;;5.18;;
44358;SDS011;30077;52.474;13.326;2022-09-03T18:32:35;7.65;;;4.93;;
44358;SDS011;30077;52.474;13.326;2022-09-03T18:37:55;9.73;;;4.65;;
44358;SDS011;30077;52.474;13.326;2022-09-03T18:49:26;9.85;;;5.18;;
44358;SDS011;30077;52.474;13.326;2022-09-03T19:01:06;5.60;;;4.40;;
44358;SDS011;30077;52.474;13.326;2022-09-03T19:23:27;5.93;;;3.97;;
44358;SDS011;30077;52.474;13.326;2022-09-03T19:28:46;10.50;;;3.42;;
44358;SDS011;30077;52.474;13.326;2022-09-03T19:34:17;9.48;;;4.30;;
44358;SDS011;30077;52.474;13.326;2022-09-03T19:40:01;9.40;;;4.35;;
44358;SDS011;30077;52.474;13.326;2022-09-03T19:45:49;6.70;;;3.90;;
44358;SDS011;30077;52.474;13.326;2022-09-03T19:51:20;6.45;;;3.58;;
44358;SDS011;30077;52.474;13.326;2022-09-03T19:56:42;5.63;;;3.80;;
44358;SDS011;30077;52.474;13.326;2022-09-03T20:02:03;6.25;;;3.60;;
44358;SDS011;30077;52.474;13.326;2022-09-03T20:07:23;7.32;;;3.90;;
44358;SDS011;30077;52.474;13.326;2022-09-03T20:12:44;7.82;;;4.15;;
44358;SDS011;30077;52.474;13.326;2022-09-03T20:18:05;5.75;;;3.55;;
44358;SDS011;30077;52.474;13.326;2022-09-03T20:23:31;5.35;;;4.00;;
44358;SDS011;30077;52.474;13.326;2022-09-03T20:34:30;7.50;;;4.20;;
44358;SDS011;30077;52.474;13.326;2022-09-03T20:50:13;14.18;;;3.95;;
44358;SDS011;30077;52.474;13.326;2022-09-03T20:55:35;6.78;;;3.55;;
44358;SDS011;30077;52.474;13.326;2022-09-03T21:06:08;6.72;;;3.50;;
44358;SDS011;30077;52.474;13.326;2022-09-03T21:22:07;4.07;;;3.33;;
44358;SDS011;30077;52.474;13.326;2022-09-03T21:27:12;8.13;;;3.58;;
44358;SDS011;30077;52.474;13.326;2022-09-03T21:32:23;4.45;;;3.42;;
44358;SDS011;30077;52.474;13.326;2022-09-03T21:37:34;5.57;;;3.22;;
44358;SDS011;30077;52.474;13.326;2022-09-03T21:47:47;5.72;;;3.38;;
44358;SDS011;30077;52.474;13.326;2022-09-03T21:53:01;6.93;;;3.40;;
44358;SDS011;30077;52.474;13.326;2022-09-03T22:03:22;9.23;;;4.55;;
44358;SDS011;30077;52.474;13.326;2022-09-03T22:08:26;6.13;;;3.60;;
44358;SDS011;30077;52.474;13.326;2022-09-03T22:14:17;4.88;;;3.65;;
44358;SDS011;30077;52.474;13.326;2022-09-03T22:19:18;7.00;;;2.80;;
44358;SDS011;30077;52.474;13.326;2022-09-03T22:51:07;6.75;;;3.13;;
44358;SDS011;30077;52.474;13.326;2022-09-03T22:56:11;6.50;;;3.20;;
44358;SDS011;30077;52.474;13.326;2022-09-03T23:01:24;6.80;;;2.60;;
44358;SDS011;30077;52.474;13.326;2022-09-03T23:06:33;5.65;;;2.45;;
44358;SDS011;30077;52.474;13.326;2022-09-03T23:11:46;10.75;;;3.20;;
44358;SDS011;30077;52.474;13.326;2022-09-03T23:16:51;6.03;;;2.80;;
44358;SDS011;30077;52.474;13.326;2022-09-03T23:22:09;4.55;;;2.70;;
44358;SDS011;30077;52.474;13.326;2022-09-03T23:27:15;5.60;;;2.83;;
44358;SDS011;30077;52.474;13.326;2022-09-03T23:32:19;7.07;;;2.75;;
44358;SDS011;30077;52.474;13.326;2022-09-03T23:53:46;5.28;;;2.75;;
44358;SDS011;30077;52.474;13.326;2022-09-03T23:59:01;5.25;;;2.47;;
